Bagley, MN

8:13 PM CDT on July 28, 2014 (GMT -0500)
Thief River Falls Regional (KTVF) Elev 1115 ft | 48.06 °N, 96.18 °W | Change Station

Current weather conditions updated 18 minutes ago

Clear
Clear
70 °F
Feels Like 70 °F
N
8
Wind Variable Wind from WNW

Tomorrow is forecast to be Warmer than today.

Today
High -- | Low -- °F
--% Chance of Precip.
Yesterday
High -- | Low -- °F
Precip. -- in
5:54 AM 9:00 PM
Waxing Crescent, 4% visible
Pressure 30.18 in
Visibility 10.0 miles
Clouds Clear
Dew Point 55 °F
Humidity 60%
Rainfall 0.00 in
Snow Depth Not available.
UV 1 out of 12
Pollen 6.80 out of 12
Air Quality Not available.
Flu Activity Not available.
METAR KTVF 290055Z AUTO 30007KT 10SM CLR 21/13 A3018 RMK AO1

More Conditions Fewer Conditions

Pressure 30.18 in
Visibility 10.0 miles
Clouds Clear
Dew Point 55 °F
Humidity 60%
Rainfall 0.00 in
Snow Depth Not available.
UV 1 out of 12
Pollen 6.80 out of 12
Air Quality Not available.
Flu Activity Not available.
METAR KTVF 290055Z AUTO 30007KT 10SM CLR 21/13 A3018 RMK AO1

More Conditions Fewer Conditions

10-Day Weather Forecast

Almanac

Astronomy

Jul. 28, 2014 Rise Set
Actual Time 5:54 AM CDT 9:00 PM CDT
Civil Twilight 5:17 AM CDT 9:37 PM CDT
Nautical Twilight 4:30 AM CDT 10:24 PM CDT
Astronomical Twilight 3:31 AM CDT 11:22 PM CDT
Moon 7:48 AM CDT (7/28) 9:29 PM CDT (7/28)
Length of Visible Light 16h 19m
Length of Day
15h 06m
Tomorrow will be 2m 31s shorter.
Waxing Crescent, 4% of the Moon is Illuminated
Today
Waxing Crescent
Aug 3
First Quarter
Aug 10
Full
Aug 17
Last Quarter
Aug 25
New

Today's Extremes

State Highs State Lows

Community

WunderPhotos

Upload Photos

1,738,579 photos uploaded!

WunderBlogs® & News

Nearby

Snow Depth

Station Depth Elevation
No new snow has been reported.

Earthquake Activity

City Distance Mag. Time & Date
No recent earthquake activity has been reported nearby.
Minimum magnitude displayed is 2.5.

Coastal Water Temperatures

Place Temperature
No Stations Reporting

Nearby Weather Stations

Station Location Temp. Heat Index Dew Point Humidity Wind Precip. Elev Updated Type
Long Lake, Bemidji, MN 65.3 °F - 57 °F 75% WNW  at  0.0 mph 0.00 in / hr 1367 ft 8:13 PM CDT Rapid Fire
Grange Rd, Bemidji, MN 67.6 °F - 57 °F 68% WNW  at  0.0 mph 0.00 in / hr 1417 ft 8:09 PM CDT Rapid Fire
Bemidji State University - Dept of Geogr, Bemidji, MN 70.1 °F 76 °F 55 °F 58% NW  at  4.0 mph 0.00 in / hr 1352 ft 8:13 PM CDT Rapid Fire

Show More Stations Show Fewer Stations